sensor_id;sensor_type;location;lat;lon;timestamp;P1;durP1;ratioP1;P2;durP2;ratioP2
47349;SDS011;33088;51.982;5.872;2023-02-15T00:01:43;71.28;;;36.53;;
47349;SDS011;33088;51.982;5.872;2023-02-15T00:04:09;62.50;;;34.28;;
47349;SDS011;33088;51.982;5.872;2023-02-15T00:06:39;58.85;;;33.28;;
47349;SDS011;33088;51.982;5.872;2023-02-15T00:09:05;64.30;;;37.38;;
47349;SDS011;33088;51.982;5.872;2023-02-15T00:11:30;71.05;;;36.45;;
47349;SDS011;33088;51.982;5.872;2023-02-15T00:14:06;62.78;;;33.22;;
47349;SDS011;33088;51.982;5.872;2023-02-15T00:16:33;62.67;;;33.22;;
47349;SDS011;33088;51.982;5.872;2023-02-15T00:18:59;57.95;;;32.78;;
47349;SDS011;33088;51.982;5.872;2023-02-15T00:21:27;68.47;;;35.50;;
47349;SDS011;33088;51.982;5.872;2023-02-15T00:23:54;63.03;;;34.85;;
47349;SDS011;33088;51.982;5.872;2023-02-15T00:26:21;61.88;;;33.90;;
47349;SDS011;33088;51.982;5.872;2023-02-15T00:28:47;56.90;;;31.92;;
47349;SDS011;33088;51.982;5.872;2023-02-15T00:31:13;63.53;;;33.88;;
47349;SDS011;33088;51.982;5.872;2023-02-15T00:33:38;60.08;;;34.53;;
47349;SDS011;33088;51.982;5.872;2023-02-15T00:36:05;63.15;;;33.55;;
47349;SDS011;33088;51.982;5.872;2023-02-15T00:38:33;68.45;;;34.72;;
47349;SDS011;33088;51.982;5.872;2023-02-15T00:41:01;55.67;;;31.60;;
47349;SDS011;33088;51.982;5.872;2023-02-15T00:43:29;64.72;;;33.25;;
47349;SDS011;33088;51.982;5.872;2023-02-15T00:45:56;68.30;;;35.30;;
47349;SDS011;33088;51.982;5.872;2023-02-15T00:48:22;67.55;;;35.47;;
47349;SDS011;33088;51.982;5.872;2023-02-15T00:50:49;65.03;;;33.33;;
47349;SDS011;33088;51.982;5.872;2023-02-15T00:53:19;59.70;;;33.00;;
47349;SDS011;33088;51.982;5.872;2023-02-15T00:55:45;70.60;;;35.75;;
47349;SDS011;33088;51.982;5.872;2023-02-15T00:58:12;70.47;;;34.72;;
47349;SDS011;33088;51.982;5.872;2023-02-15T01:00:38;63.97;;;35.38;;
47349;SDS011;33088;51.982;5.872;2023-02-15T01:03:06;66.13;;;35.50;;
47349;SDS011;33088;51.982;5.872;2023-02-15T01:05:32;61.78;;;35.35;;
47349;SDS011;33088;51.982;5.872;2023-02-15T01:07:58;72.00;;;38.78;;
47349;SDS011;33088;51.982;5.872;2023-02-15T01:10:24;70.13;;;35.63;;
47349;SDS011;33088;51.982;5.872;2023-02-15T01:12:51;68.68;;;33.83;;
47349;SDS011;33088;51.982;5.872;2023-02-15T01:15:17;63.95;;;32.15;;
47349;SDS011;33088;51.982;5.872;2023-02-15T01:17:43;65.90;;;35.47;;
47349;SDS011;33088;51.982;5.872;2023-02-15T01:20:14;65.05;;;33.28;;
47349;SDS011;33088;51.982;5.872;2023-02-15T01:22:40;62.90;;;32.38;;
47349;SDS011;33088;51.982;5.872;2023-02-15T01:25:06;58.65;;;31.92;;
47349;SDS011;33088;51.982;5.872;2023-02-15T01:27:31;72.75;;;36.10;;
47349;SDS011;33088;51.982;5.872;2023-02-15T01:29:57;63.47;;;33.45;;
47349;SDS011;33088;51.982;5.872;2023-02-15T01:32:23;65.55;;;34.67;;
47349;SDS011;33088;51.982;5.872;2023-02-15T01:34:48;60.03;;;33.95;;
47349;SDS011;33088;51.982;5.872;2023-02-15T01:37:14;58.53;;;31.95;;
47349;SDS011;33088;51.982;5.872;2023-02-15T01:39:40;68.70;;;34.17;;
47349;SDS011;33088;51.982;5.872;2023-02-15T01:42:09;52.85;;;31.33;;
47349;SDS011;33088;51.982;5.872;2023-02-15T01:47:13;52.80;;;30.05;;
47349;SDS011;33088;51.982;5.872;2023-02-15T01:49:45;55.13;;;32.65;;
47349;SDS011;33088;51.982;5.872;2023-02-15T01:52:13;60.78;;;31.00;;
47349;SDS011;33088;51.982;5.872;2023-02-15T01:54:42;60.25;;;31.80;;
47349;SDS011;33088;51.982;5.872;2023-02-15T01:57:13;60.65;;;32.20;;
47349;SDS011;33088;51.982;5.872;2023-02-15T02:02:14;60.95;;;30.70;;
47349;SDS011;33088;51.982;5.872;2023-02-15T02:04:47;49.47;;;28.58;;
47349;SDS011;33088;51.982;5.872;2023-02-15T02:07:18;62.92;;;30.88;;
47349;SDS011;33088;51.982;5.872;2023-02-15T02:09:46;61.53;;;31.40;;
47349;SDS011;33088;51.982;5.872;2023-02-15T02:12:12;56.95;;;30.50;;
47349;SDS011;33088;51.982;5.872;2023-02-15T02:14:41;55.10;;;30.23;;
47349;SDS011;33088;51.982;5.872;2023-02-15T02:28:49;55.20;;;30.42;;
47349;SDS011;33088;51.982;5.872;2023-02-15T02:34:16;57.67;;;30.33;;
47349;SDS011;33088;51.982;5.872;2023-02-15T02:37:12;55.70;;;31.80;;
47349;SDS011;33088;51.982;5.872;2023-02-15T02:40:13;62.00;;;31.10;;
47349;SDS011;33088;51.982;5.872;2023-02-15T02:42:56;52.08;;;28.98;;
47349;SDS011;33088;51.982;5.872;2023-02-15T02:45:28;53.65;;;29.90;;
47349;SDS011;33088;51.982;5.872;2023-02-15T02:48:10;51.50;;;28.90;;
47349;SDS011;33088;51.982;5.872;2023-02-15T02:50:40;52.60;;;29.80;;
47349;SDS011;33088;51.982;5.872;2023-02-15T02:53:06;60.25;;;30.33;;
47349;SDS011;33088;51.982;5.872;2023-02-15T02:55:55;57.47;;;29.48;;
47349;SDS011;33088;51.982;5.872;2023-02-15T02:58:33;56.63;;;31.73;;
47349;SDS011;33088;51.982;5.872;2023-02-15T03:03:48;61.00;;;32.03;;
47349;SDS011;33088;51.982;5.872;2023-02-15T03:06:22;54.25;;;30.90;;
47349;SDS011;33088;51.982;5.872;2023-02-15T03:09:12;60.95;;;31.92;;
47349;SDS011;33088;51.982;5.872;2023-02-15T03:11:45;62.17;;;30.95;;
47349;SDS011;33088;51.982;5.872;2023-02-15T03:14:13;58.65;;;30.13;;
47349;SDS011;33088;51.982;5.872;2023-02-15T03:16:40;59.55;;;30.80;;
47349;SDS011;33088;51.982;5.872;2023-02-15T03:19:12;58.65;;;29.75;;
47349;SDS011;33088;51.982;5.872;2023-02-15T03:21:47;60.13;;;30.45;;
47349;SDS011;33088;51.982;5.872;2023-02-15T03:24:23;63.97;;;32.13;;
47349;SDS011;33088;51.982;5.872;2023-02-15T03:26:51;67.78;;;32.80;;
47349;SDS011;33088;51.982;5.872;2023-02-15T03:29:20;60.53;;;31.42;;
47349;SDS011;33088;51.982;5.872;2023-02-15T03:31:50;68.40;;;35.00;;
47349;SDS011;33088;51.982;5.872;2023-02-15T03:34:19;56.15;;;31.85;;
47349;SDS011;33088;51.982;5.872;2023-02-15T03:39:28;62.58;;;29.70;;
47349;SDS011;33088;51.982;5.872;2023-02-15T03:41:59;56.40;;;31.42;;
47349;SDS011;33088;51.982;5.872;2023-02-15T03:47:30;52.35;;;28.65;;
47349;SDS011;33088;51.982;5.872;2023-02-15T03:50:03;70.80;;;33.63;;
47349;SDS011;33088;51.982;5.872;2023-02-15T03:53:03;58.03;;;29.80;;
47349;SDS011;33088;51.982;5.872;2023-02-15T03:55:33;54.97;;;30.40;;
47349;SDS011;33088;51.982;5.872;2023-02-15T03:57:59;52.17;;;29.33;;
47349;SDS011;33088;51.982;5.872;2023-02-15T04:01:14;55.15;;;29.85;;
47349;SDS011;33088;51.982;5.872;2023-02-15T04:04:19;51.58;;;27.55;;
47349;SDS011;33088;51.982;5.872;2023-02-15T04:06:47;62.20;;;30.00;;
47349;SDS011;33088;51.982;5.872;2023-02-15T04:09:13;66.07;;;32.05;;
47349;SDS011;33088;51.982;5.872;2023-02-15T04:11:57;60.47;;;31.23;;
47349;SDS011;33088;51.982;5.872;2023-02-15T04:14:23;62.03;;;32.42;;
47349;SDS011;33088;51.982;5.872;2023-02-15T04:17:07;63.22;;;31.35;;
47349;SDS011;33088;51.982;5.872;2023-02-15T04:19:33;54.80;;;30.45;;
47349;SDS011;33088;51.982;5.872;2023-02-15T04:22:18;52.50;;;29.17;;
47349;SDS011;33088;51.982;5.872;2023-02-15T04:25:02;63.70;;;31.20;;
47349;SDS011;33088;51.982;5.872;2023-02-15T04:27:35;62.55;;;31.75;;
47349;SDS011;33088;51.982;5.872;2023-02-15T04:30:02;57.63;;;29.80;;
47349;SDS011;33088;51.982;5.872;2023-02-15T04:32:28;54.78;;;28.83;;
47349;SDS011;33088;51.982;5.872;2023-02-15T04:34:54;67.70;;;34.95;;
47349;SDS011;33088;51.982;5.872;2023-02-15T04:37:19;57.28;;;28.75;;
47349;SDS011;33088;51.982;5.872;2023-02-15T04:39:45;66.28;;;31.08;;
47349;SDS011;33088;51.982;5.872;2023-02-15T04:42:10;57.15;;;29.73;;
47349;SDS011;33088;51.982;5.872;2023-02-15T04:44:36;48.97;;;29.17;;
47349;SDS011;33088;51.982;5.872;2023-02-15T04:47:02;58.30;;;30.05;;
47349;SDS011;33088;51.982;5.872;2023-02-15T04:49:27;58.15;;;29.42;;
47349;SDS011;33088;51.982;5.872;2023-02-15T04:51:53;52.45;;;26.50;;
47349;SDS011;33088;51.982;5.872;2023-02-15T04:54:19;55.08;;;28.42;;
47349;SDS011;33088;51.982;5.872;2023-02-15T04:56:44;55.80;;;30.33;;
47349;SDS011;33088;51.982;5.872;2023-02-15T04:59:10;55.45;;;28.40;;
47349;SDS011;33088;51.982;5.872;2023-02-15T05:01:36;56.55;;;28.42;;
47349;SDS011;33088;51.982;5.872;2023-02-15T05:04:02;57.72;;;27.23;;
47349;SDS011;33088;51.982;5.872;2023-02-15T05:06:28;48.53;;;25.88;;
47349;SDS011;33088;51.982;5.872;2023-02-15T05:08:54;56.22;;;28.15;;
47349;SDS011;33088;51.982;5.872;2023-02-15T05:11:19;59.15;;;28.73;;
47349;SDS011;33088;51.982;5.872;2023-02-15T05:13:45;52.13;;;27.27;;
47349;SDS011;33088;51.982;5.872;2023-02-15T05:16:11;53.08;;;27.40;;
47349;SDS011;33088;51.982;5.872;2023-02-15T05:18:37;49.70;;;27.50;;
47349;SDS011;33088;51.982;5.872;2023-02-15T05:21:02;62.08;;;30.08;;
47349;SDS011;33088;51.982;5.872;2023-02-15T05:23:28;57.45;;;28.25;;
47349;SDS011;33088;51.982;5.872;2023-02-15T05:25:54;57.90;;;29.77;;
47349;SDS011;33088;51.982;5.872;2023-02-15T05:28:38;54.33;;;28.92;;
47349;SDS011;33088;51.982;5.872;2023-02-15T05:31:08;64.53;;;31.23;;
47349;SDS011;33088;51.982;5.872;2023-02-15T05:33:39;67.45;;;31.88;;
47349;SDS011;33088;51.982;5.872;2023-02-15T05:36:06;59.00;;;30.63;;
47349;SDS011;33088;51.982;5.872;2023-02-15T05:38:32;61.40;;;31.67;;
47349;SDS011;33088;51.982;5.872;2023-02-15T05:40:58;62.35;;;33.30;;
47349;SDS011;33088;51.982;5.872;2023-02-15T05:43:24;63.05;;;31.30;;
47349;SDS011;33088;51.982;5.872;2023-02-15T05:45:53;55.08;;;29.30;;
47349;SDS011;33088;51.982;5.872;2023-02-15T05:48:20;68.78;;;33.17;;
47349;SDS011;33088;51.982;5.872;2023-02-15T05:53:25;67.40;;;32.42;;
47349;SDS011;33088;51.982;5.872;2023-02-15T05:55:51;65.88;;;29.75;;
47349;SDS011;33088;51.982;5.872;2023-02-15T05:58:17;64.25;;;31.67;;
47349;SDS011;33088;51.982;5.872;2023-02-15T06:00:42;57.63;;;30.25;;
47349;SDS011;33088;51.982;5.872;2023-02-15T06:03:08;56.20;;;29.23;;
47349;SDS011;33088;51.982;5.872;2023-02-15T06:05:34;59.97;;;29.75;;
47349;SDS011;33088;51.982;5.872;2023-02-15T06:07:59;56.88;;;30.10;;
47349;SDS011;33088;51.982;5.872;2023-02-15T06:10:25;57.65;;;30.00;;
47349;SDS011;33088;51.982;5.872;2023-02-15T06:12:50;60.90;;;31.98;;
47349;SDS011;33088;51.982;5.872;2023-02-15T06:15:16;53.33;;;30.65;;
47349;SDS011;33088;51.982;5.872;2023-02-15T06:17:42;60.80;;;30.83;;
47349;SDS011;33088;51.982;5.872;2023-02-15T06:20:08;56.45;;;29.73;;
47349;SDS011;33088;51.982;5.872;2023-02-15T06:22:34;55.30;;;28.92;;
47349;SDS011;33088;51.982;5.872;2023-02-15T06:25:00;58.85;;;29.95;;
47349;SDS011;33088;51.982;5.872;2023-02-15T06:27:26;55.05;;;29.05;;
47349;SDS011;33088;51.982;5.872;2023-02-15T06:29:51;70.65;;;30.95;;
47349;SDS011;33088;51.982;5.872;2023-02-15T06:32:17;61.33;;;29.27;;
47349;SDS011;33088;51.982;5.872;2023-02-15T06:34:43;61.10;;;31.52;;
47349;SDS011;33088;51.982;5.872;2023-02-15T06:37:11;58.53;;;28.77;;
47349;SDS011;33088;51.982;5.872;2023-02-15T06:39:40;55.53;;;28.95;;
47349;SDS011;33088;51.982;5.872;2023-02-15T06:42:05;56.40;;;27.65;;
47349;SDS011;33088;51.982;5.872;2023-02-15T06:44:31;56.22;;;29.00;;
47349;SDS011;33088;51.982;5.872;2023-02-15T06:46:56;64.88;;;33.05;;
47349;SDS011;33088;51.982;5.872;2023-02-15T06:49:22;66.55;;;32.50;;
47349;SDS011;33088;51.982;5.872;2023-02-15T06:51:48;55.00;;;29.20;;
47349;SDS011;33088;51.982;5.872;2023-02-15T06:54:14;64.65;;;31.88;;
47349;SDS011;33088;51.982;5.872;2023-02-15T06:56:39;60.03;;;31.95;;
47349;SDS011;33088;51.982;5.872;2023-02-15T06:59:05;64.10;;;30.65;;
47349;SDS011;33088;51.982;5.872;2023-02-15T07:01:30;58.92;;;31.48;;
47349;SDS011;33088;51.982;5.872;2023-02-15T07:03:56;62.17;;;33.35;;
47349;SDS011;33088;51.982;5.872;2023-02-15T07:06:21;65.57;;;32.28;;
47349;SDS011;33088;51.982;5.872;2023-02-15T07:08:47;73.60;;;35.05;;
47349;SDS011;33088;51.982;5.872;2023-02-15T07:11:13;74.03;;;35.10;;
47349;SDS011;33088;51.982;5.872;2023-02-15T07:14:02;62.60;;;32.40;;
47349;SDS011;33088;51.982;5.872;2023-02-15T07:16:28;60.45;;;32.88;;
47349;SDS011;33088;51.982;5.872;2023-02-15T07:18:53;61.42;;;32.13;;
47349;SDS011;33088;51.982;5.872;2023-02-15T07:21:19;70.68;;;34.70;;
47349;SDS011;33088;51.982;5.872;2023-02-15T07:23:45;63.30;;;31.90;;
47349;SDS011;33088;51.982;5.872;2023-02-15T07:26:11;73.43;;;34.55;;
47349;SDS011;33088;51.982;5.872;2023-02-15T07:28:36;70.15;;;33.33;;
47349;SDS011;33088;51.982;5.872;2023-02-15T07:31:02;69.95;;;34.17;;
47349;SDS011;33088;51.982;5.872;2023-02-15T07:33:32;72.30;;;35.97;;
47349;SDS011;33088;51.982;5.872;2023-02-15T07:35:59;76.15;;;36.15;;
47349;SDS011;33088;51.982;5.872;2023-02-15T07:38:27;74.47;;;36.00;;
47349;SDS011;33088;51.982;5.872;2023-02-15T07:41:00;66.63;;;33.92;;
47349;SDS011;33088;51.982;5.872;2023-02-15T07:43:27;74.10;;;35.95;;
47349;SDS011;33088;51.982;5.872;2023-02-15T07:45:54;70.90;;;35.92;;
47349;SDS011;33088;51.982;5.872;2023-02-15T07:48:23;78.65;;;37.80;;
47349;SDS011;33088;51.982;5.872;2023-02-15T07:50:49;74.28;;;36.75;;
47349;SDS011;33088;51.982;5.872;2023-02-15T07:53:15;75.03;;;36.03;;
47349;SDS011;33088;51.982;5.872;2023-02-15T07:55:40;74.72;;;38.42;;
47349;SDS011;33088;51.982;5.872;2023-02-15T07:58:06;70.65;;;32.85;;
47349;SDS011;33088;51.982;5.872;2023-02-15T08:00:32;76.68;;;36.08;;
47349;SDS011;33088;51.982;5.872;2023-02-15T08:03:17;67.72;;;33.20;;
47349;SDS011;33088;51.982;5.872;2023-02-15T08:05:44;82.18;;;38.15;;
47349;SDS011;33088;51.982;5.872;2023-02-15T08:08:10;75.05;;;37.05;;
47349;SDS011;33088;51.982;5.872;2023-02-15T08:11:13;71.18;;;35.63;;
47349;SDS011;33088;51.982;5.872;2023-02-15T08:13:53;63.03;;;34.15;;
47349;SDS011;33088;51.982;5.872;2023-02-15T08:18:53;65.88;;;33.40;;
47349;SDS011;33088;51.982;5.872;2023-02-15T08:21:20;68.10;;;36.10;;
47349;SDS011;33088;51.982;5.872;2023-02-15T08:23:46;63.78;;;33.45;;
47349;SDS011;33088;51.982;5.872;2023-02-15T08:26:12;71.35;;;35.85;;
47349;SDS011;33088;51.982;5.872;2023-02-15T08:28:39;61.58;;;34.08;;
47349;SDS011;33088;51.982;5.872;2023-02-15T08:31:09;67.32;;;32.78;;
47349;SDS011;33088;51.982;5.872;2023-02-15T08:33:37;65.30;;;32.85;;
47349;SDS011;33088;51.982;5.872;2023-02-15T08:36:04;58.75;;;32.20;;
47349;SDS011;33088;51.982;5.872;2023-02-15T08:38:32;63.70;;;33.00;;
47349;SDS011;33088;51.982;5.872;2023-02-15T08:41:08;66.35;;;33.97;;
47349;SDS011;33088;51.982;5.872;2023-02-15T08:43:42;71.63;;;33.65;;
47349;SDS011;33088;51.982;5.872;2023-02-15T08:46:09;67.65;;;35.92;;
47349;SDS011;33088;51.982;5.872;2023-02-15T08:48:35;73.70;;;34.30;;
47349;SDS011;33088;51.982;5.872;2023-02-15T08:51:08;55.45;;;33.35;;
47349;SDS011;33088;51.982;5.872;2023-02-15T08:53:36;57.70;;;31.45;;
47349;SDS011;33088;51.982;5.872;2023-02-15T08:56:03;67.55;;;34.22;;
47349;SDS011;33088;51.982;5.872;2023-02-15T08:58:29;59.33;;;31.73;;
47349;SDS011;33088;51.982;5.872;2023-02-15T09:00:56;63.05;;;33.20;;
47349;SDS011;33088;51.982;5.872;2023-02-15T09:03:22;64.40;;;33.58;;
47349;SDS011;33088;51.982;5.872;2023-02-15T09:05:48;59.20;;;32.70;;
47349;SDS011;33088;51.982;5.872;2023-02-15T09:08:15;56.90;;;31.73;;
47349;SDS011;33088;51.982;5.872;2023-02-15T09:10:41;54.05;;;31.42;;
47349;SDS011;33088;51.982;5.872;2023-02-15T09:13:06;54.65;;;31.50;;
47349;SDS011;33088;51.982;5.872;2023-02-15T09:15:32;60.40;;;32.53;;
47349;SDS011;33088;51.982;5.872;2023-02-15T09:17:58;58.90;;;31.60;;
47349;SDS011;33088;51.982;5.872;2023-02-15T09:20:26;59.40;;;31.33;;
47349;SDS011;33088;51.982;5.872;2023-02-15T09:22:53;60.05;;;33.63;;
47349;SDS011;33088;51.982;5.872;2023-02-15T09:25:21;56.72;;;32.47;;
47349;SDS011;33088;51.982;5.872;2023-02-15T09:27:46;49.60;;;30.42;;
47349;SDS011;33088;51.982;5.872;2023-02-15T09:30:12;60.17;;;30.27;;
47349;SDS011;33088;51.982;5.872;2023-02-15T09:32:38;57.25;;;31.33;;
47349;SDS011;33088;51.982;5.872;2023-02-15T09:35:04;53.22;;;30.15;;
47349;SDS011;33088;51.982;5.872;2023-02-15T09:37:33;56.15;;;32.28;;
47349;SDS011;33088;51.982;5.872;2023-02-15T09:39:58;64.63;;;31.52;;
47349;SDS011;33088;51.982;5.872;2023-02-15T09:45:23;56.85;;;30.67;;
47349;SDS011;33088;51.982;5.872;2023-02-15T09:48:11;51.70;;;29.30;;
47349;SDS011;33088;51.982;5.872;2023-02-15T09:51:05;57.60;;;28.60;;
47349;SDS011;33088;51.982;5.872;2023-02-15T09:56:26;50.50;;;29.58;;
47349;SDS011;33088;51.982;5.872;2023-02-15T09:59:27;57.20;;;29.63;;
47349;SDS011;33088;51.982;5.872;2023-02-15T10:05:21;53.88;;;29.52;;
47349;SDS011;33088;51.982;5.872;2023-02-15T10:08:19;52.90;;;29.05;;
47349;SDS011;33088;51.982;5.872;2023-02-15T10:11:08;53.83;;;30.30;;
47349;SDS011;33088;51.982;5.872;2023-02-15T10:19:17;54.13;;;30.10;;
47349;SDS011;33088;51.982;5.872;2023-02-15T10:24:21;51.10;;;26.88;;
47349;SDS011;33088;51.982;5.872;2023-02-15T10:26:56;49.40;;;27.65;;
47349;SDS011;33088;51.982;5.872;2023-02-15T10:29:35;46.83;;;25.88;;
47349;SDS011;33088;51.982;5.872;2023-02-15T10:34:53;46.72;;;26.45;;
47349;SDS011;33088;51.982;5.872;2023-02-15T10:57:02;42.20;;;23.88;;
47349;SDS011;33088;51.982;5.872;2023-02-15T10:59:41;42.33;;;23.23;;
47349;SDS011;33088;51.982;5.872;2023-02-15T11:05:35;40.58;;;22.88;;
47349;SDS011;33088;51.982;5.872;2023-02-15T11:08:22;41.03;;;23.45;;
47349;SDS011;33088;51.982;5.872;2023-02-15T11:10:52;40.60;;;23.35;;
47349;SDS011;33088;51.982;5.872;2023-02-15T11:13:22;43.47;;;24.38;;
47349;SDS011;33088;51.982;5.872;2023-02-15T11:16:00;38.47;;;21.58;;
47349;SDS011;33088;51.982;5.872;2023-02-15T11:18:37;40.03;;;22.95;;
47349;SDS011;33088;51.982;5.872;2023-02-15T11:21:11;35.95;;;22.15;;
47349;SDS011;33088;51.982;5.872;2023-02-15T11:23:51;40.83;;;22.75;;
47349;SDS011;33088;51.982;5.872;2023-02-15T11:31:53;41.25;;;21.95;;
47349;SDS011;33088;51.982;5.872;2023-02-15T11:34:27;45.92;;;22.17;;
47349;SDS011;33088;51.982;5.872;2023-02-15T11:37:07;36.75;;;21.88;;
47349;SDS011;33088;51.982;5.872;2023-02-15T11:39:37;43.28;;;23.80;;
47349;SDS011;33088;51.982;5.872;2023-02-15T11:42:11;37.17;;;23.02;;
47349;SDS011;33088;51.982;5.872;2023-02-15T11:44:46;37.45;;;21.75;;
47349;SDS011;33088;51.982;5.872;2023-02-15T11:47:19;41.63;;;23.63;;
47349;SDS011;33088;51.982;5.872;2023-02-15T11:49:44;38.88;;;23.15;;
47349;SDS011;33088;51.982;5.872;2023-02-15T11:52:12;39.45;;;22.73;;
47349;SDS011;33088;51.982;5.872;2023-02-15T11:54:43;39.53;;;23.48;;
47349;SDS011;33088;51.982;5.872;2023-02-15T11:57:16;43.35;;;24.27;;
47349;SDS011;33088;51.982;5.872;2023-02-15T12:00:23;44.10;;;25.00;;
47349;SDS011;33088;51.982;5.872;2023-02-15T12:02:45;44.30;;;24.40;;
47349;SDS011;33088;51.982;5.872;2023-02-15T12:05:17;40.33;;;24.30;;
47349;SDS011;33088;51.982;5.872;2023-02-15T12:07:46;42.38;;;23.98;;
47349;SDS011;33088;51.982;5.872;2023-02-15T12:10:20;43.20;;;23.15;;
47349;SDS011;33088;51.982;5.872;2023-02-15T12:13:12;42.75;;;22.15;;
47349;SDS011;33088;51.982;5.872;2023-02-15T12:15:46;40.53;;;23.60;;
47349;SDS011;33088;51.982;5.872;2023-02-15T12:19:00;41.78;;;25.10;;
47349;SDS011;33088;51.982;5.872;2023-02-15T12:21:15;41.03;;;24.98;;
47349;SDS011;33088;51.982;5.872;2023-02-15T12:27:02;42.78;;;24.88;;
47349;SDS011;33088;51.982;5.872;2023-02-15T12:29:41;45.08;;;24.65;;
47349;SDS011;33088;51.982;5.872;2023-02-15T12:32:19;46.47;;;25.25;;
47349;SDS011;33088;51.982;5.872;2023-02-15T12:34:53;43.85;;;24.70;;
47349;SDS011;33088;51.982;5.872;2023-02-15T12:37:26;44.92;;;24.70;;
47349;SDS011;33088;51.982;5.872;2023-02-15T12:39:57;41.70;;;25.50;;
47349;SDS011;33088;51.982;5.872;2023-02-15T12:42:24;41.88;;;25.63;;
47349;SDS011;33088;51.982;5.872;2023-02-15T12:45:04;40.05;;;23.52;;
47349;SDS011;33088;51.982;5.872;2023-02-15T12:50:41;43.67;;;24.92;;
47349;SDS011;33088;51.982;5.872;2023-02-15T12:53:19;48.88;;;25.75;;
47349;SDS011;33088;51.982;5.872;2023-02-15T13:01:08;43.95;;;25.52;;
47349;SDS011;33088;51.982;5.872;2023-02-15T13:03:58;43.47;;;23.90;;
47349;SDS011;33088;51.982;5.872;2023-02-15T13:06:32;44.03;;;25.25;;
47349;SDS011;33088;51.982;5.872;2023-02-15T13:09:35;42.13;;;26.13;;
47349;SDS011;33088;51.982;5.872;2023-02-15T13:12:09;43.50;;;25.88;;
47349;SDS011;33088;51.982;5.872;2023-02-15T13:14:36;44.22;;;25.20;;
47349;SDS011;33088;51.982;5.872;2023-02-15T13:17:03;45.40;;;25.48;;
47349;SDS011;33088;51.982;5.872;2023-02-15T13:19:36;46.38;;;25.67;;
47349;SDS011;33088;51.982;5.872;2023-02-15T13:22:15;43.70;;;25.90;;
47349;SDS011;33088;51.982;5.872;2023-02-15T13:24:57;45.97;;;26.33;;
47349;SDS011;33088;51.982;5.872;2023-02-15T13:27:37;45.70;;;26.05;;
47349;SDS011;33088;51.982;5.872;2023-02-15T13:30:13;45.60;;;26.13;;
47349;SDS011;33088;51.982;5.872;2023-02-15T13:32:43;46.53;;;26.08;;
47349;SDS011;33088;51.982;5.872;2023-02-15T13:35:14;43.92;;;25.67;;
47349;SDS011;33088;51.982;5.872;2023-02-15T13:37:56;42.08;;;25.85;;
47349;SDS011;33088;51.982;5.872;2023-02-15T13:40:40;49.83;;;27.00;;
47349;SDS011;33088;51.982;5.872;2023-02-15T13:51:48;46.05;;;26.23;;
47349;SDS011;33088;51.982;5.872;2023-02-15T14:00:03;42.20;;;25.85;;
47349;SDS011;33088;51.982;5.872;2023-02-15T14:02:56;42.20;;;25.70;;
47349;SDS011;33088;51.982;5.872;2023-02-15T14:17:12;45.05;;;26.60;;
47349;SDS011;33088;51.982;5.872;2023-02-15T14:22:35;44.50;;;25.27;;
47349;SDS011;33088;51.982;5.872;2023-02-15T14:25:32;43.33;;;25.85;;
47349;SDS011;33088;51.982;5.872;2023-02-15T14:28:29;47.17;;;26.67;;
47349;SDS011;33088;51.982;5.872;2023-02-15T14:31:00;47.22;;;27.02;;
47349;SDS011;33088;51.982;5.872;2023-02-15T14:33:52;44.00;;;26.45;;
47349;SDS011;33088;51.982;5.872;2023-02-15T14:36:20;45.53;;;27.15;;
47349;SDS011;33088;51.982;5.872;2023-02-15T14:38:54;45.38;;;27.75;;
47349;SDS011;33088;51.982;5.872;2023-02-15T14:42:04;46.55;;;26.30;;
47349;SDS011;33088;51.982;5.872;2023-02-15T14:44:42;43.53;;;25.25;;
47349;SDS011;33088;51.982;5.872;2023-02-15T14:47:25;50.17;;;27.45;;
47349;SDS011;33088;51.982;5.872;2023-02-15T14:59:00;46.50;;;24.85;;
47349;SDS011;33088;51.982;5.872;2023-02-15T15:01:33;40.63;;;25.75;;
47349;SDS011;33088;51.982;5.872;2023-02-15T15:04:07;42.78;;;24.73;;
47349;SDS011;33088;51.982;5.872;2023-02-15T15:06:37;52.47;;;27.52;;
47349;SDS011;33088;51.982;5.872;2023-02-15T15:09:10;47.35;;;25.88;;
47349;SDS011;33088;51.982;5.872;2023-02-15T15:11:38;45.00;;;26.65;;
47349;SDS011;33088;51.982;5.872;2023-02-15T15:14:07;48.38;;;26.65;;
47349;SDS011;33088;51.982;5.872;2023-02-15T15:19:12;52.58;;;26.17;;
47349;SDS011;33088;51.982;5.872;2023-02-15T15:22:22;47.05;;;25.83;;
47349;SDS011;33088;51.982;5.872;2023-02-15T15:24:51;43.65;;;26.15;;
47349;SDS011;33088;51.982;5.872;2023-02-15T15:32:40;50.45;;;25.50;;
47349;SDS011;33088;51.982;5.872;2023-02-15T15:38:26;48.67;;;25.92;;
47349;SDS011;33088;51.982;5.872;2023-02-15T15:49:45;44.65;;;23.65;;
47349;SDS011;33088;51.982;5.872;2023-02-15T15:52:15;46.50;;;25.77;;
47349;SDS011;33088;51.982;5.872;2023-02-15T15:54:43;45.97;;;26.13;;
47349;SDS011;33088;51.982;5.872;2023-02-15T15:57:14;43.17;;;23.52;;
47349;SDS011;33088;51.982;5.872;2023-02-15T15:59:50;49.60;;;26.75;;
47349;SDS011;33088;51.982;5.872;2023-02-15T16:02:16;41.15;;;24.08;;
47349;SDS011;33088;51.982;5.872;2023-02-15T16:04:43;40.38;;;24.65;;
47349;SDS011;33088;51.982;5.872;2023-02-15T16:09:55;42.37;;;25.10;;
47349;SDS011;33088;51.982;5.872;2023-02-15T16:12:27;44.05;;;25.00;;
47349;SDS011;33088;51.982;5.872;2023-02-15T16:14:54;48.45;;;27.50;;
47349;SDS011;33088;51.982;5.872;2023-02-15T16:17:25;44.13;;;25.48;;
47349;SDS011;33088;51.982;5.872;2023-02-15T16:20:06;46.65;;;24.83;;
47349;SDS011;33088;51.982;5.872;2023-02-15T16:22:45;45.15;;;25.58;;
47349;SDS011;33088;51.982;5.872;2023-02-15T16:25:27;55.10;;;29.20;;
47349;SDS011;33088;51.982;5.872;2023-02-15T16:28:06;51.92;;;26.83;;
47349;SDS011;33088;51.982;5.872;2023-02-15T16:30:35;47.72;;;25.85;;
47349;SDS011;33088;51.982;5.872;2023-02-15T16:33:04;52.08;;;26.63;;
47349;SDS011;33088;51.982;5.872;2023-02-15T16:35:39;51.72;;;27.63;;
47349;SDS011;33088;51.982;5.872;2023-02-15T16:38:08;46.25;;;23.85;;
47349;SDS011;33088;51.982;5.872;2023-02-15T16:43:10;46.80;;;24.87;;
47349;SDS011;33088;51.982;5.872;2023-02-15T16:45:43;49.92;;;26.80;;
47349;SDS011;33088;51.982;5.872;2023-02-15T16:48:14;44.25;;;25.23;;
47349;SDS011;33088;51.982;5.872;2023-02-15T16:50:51;45.83;;;26.40;;
47349;SDS011;33088;51.982;5.872;2023-02-15T16:53:21;46.63;;;26.67;;
47349;SDS011;33088;51.982;5.872;2023-02-15T16:55:51;51.70;;;28.30;;
47349;SDS011;33088;51.982;5.872;2023-02-15T16:58:32;50.78;;;28.52;;
47349;SDS011;33088;51.982;5.872;2023-02-15T17:01:13;47.35;;;27.05;;
47349;SDS011;33088;51.982;5.872;2023-02-15T17:03:41;52.60;;;29.13;;
47349;SDS011;33088;51.982;5.872;2023-02-15T17:08:50;51.60;;;29.40;;
47349;SDS011;33088;51.982;5.872;2023-02-15T17:11:17;50.63;;;28.77;;
47349;SDS011;33088;51.982;5.872;2023-02-15T17:14:30;50.03;;;27.60;;
47349;SDS011;33088;51.982;5.872;2023-02-15T17:18:58;52.85;;;28.17;;
47349;SDS011;33088;51.982;5.872;2023-02-15T17:21:36;51.65;;;28.65;;
47349;SDS011;33088;51.982;5.872;2023-02-15T17:24:15;55.92;;;29.15;;
47349;SDS011;33088;51.982;5.872;2023-02-15T17:26:48;50.33;;;28.65;;
47349;SDS011;33088;51.982;5.872;2023-02-15T17:31:59;52.65;;;28.55;;